Terminal Aerodrome Forecast
Issued by NWS

Current Version | Previous Version | Text Only | Print | Product List | Glossary On
Versions: 1 2 3 4 5 6 7 8 9 10 11 12 13 14 15 16 17 18
000
FTUS43 KFGF 172320
TAFDVL
TAF
KDVL 172320Z 1800/1824 22012KT P6SM SKC WS020/24045KT
     FM180900 24015KT P6SM SCT250 WS020/27045KT
     FM181100 27017KT P6SM FEW250 WS020/29045KT
     FM181300 28021G30KT P6SM FEW200
     FM181600 28027G38KT P6SM FEW250
     FM182300 27019G27KT P6SM FEW250=

USA.gov is the U.S. government's official web portal to all federal, state and local government web resources and services.